Wetterdaten: Woche 30.04.12 - 06.05.12 (KW18)
Datum Zeit Temperatur Luftfeuchte Luftdruck Niederschlag Windrichtung Sonnenschein Solar Wind
30.04.2012 00:00 12,3 C 75 % 1011,3 hPa 0,0 l/m N-NO 0,00 h 0 W/m 7,9 km/h (2 Bft)
30.04.2012 01:00 11,5 C 77 % 1012,0 hPa 0,0 l/m NW 0,00 h 0 W/m 6,0 km/h (2 Bft)
30.04.2012 02:00 10,3 C 82 % 1012,3 hPa 0,0 l/m N 0,00 h 0 W/m 1,9 km/h (1 Bft)
30.04.2012 03:00 9,4 C 85 % 1012,6 hPa 0,0 l/m N 0,00 h 0 W/m 1,1 km/h (0 Bft)
30.04.2012 04:00 8,5 C 88 % 1012,9 hPa 0,0 l/m N 0,00 h 0 W/m 1,5 km/h (1 Bft)
30.04.2012 05:00 8,1 C 89 % 1013,3 hPa 0,0 l/m N 0,00 h 0 W/m 2,0 km/h (1 Bft)
30.04.2012 06:00 8,3 C 90 % 1013,3 hPa 0,0 l/m N-NW 0,00 h 21 W/m 4,6 km/h (1 Bft)
30.04.2012 07:00 10,4 C 82 % 1012,9 hPa 0,0 l/m N-NW 0,58 h 135 W/m 3,9 km/h (1 Bft)
30.04.2012 08:00 13,1 C 72 % 1012,7 hPa 0,0 l/m N-NO 0,92 h 273 W/m 7,0 km/h (2 Bft)
30.04.2012 09:00 15,6 C 62 % 1012,7 hPa 0,0 l/m O-NO 1,00 h 489 W/m 16,4 km/h (3 Bft)
30.04.2012 10:00 17,6 C 58 % 1011,9 hPa 0,0 l/m O-NO 1,00 h 651 W/m 17,8 km/h (3 Bft)
30.04.2012 11:00 19,5 C 54 % 1010,8 hPa 0,0 l/m NO 1,00 h 779 W/m 21,3 km/h (4 Bft)
30.04.2012 12:00 21,1 C 50 % 1010,4 hPa 0,0 l/m O-SO 1,00 h 875 W/m 24,4 km/h (4 Bft)
30.04.2012 13:00 22,5 C 46 % 1009,6 hPa 0,0 l/m O-NO 1,00 h 869 W/m 21,8 km/h (4 Bft)
30.04.2012 14:00 23,0 C 43 % 1008,5 hPa 0,0 l/m O 0,75 h 655 W/m 23,9 km/h (4 Bft)
30.04.2012 15:00 22,7 C 43 % 1007,9 hPa 0,0 l/m O 0,08 h 303 W/m 22,9 km/h (4 Bft)
30.04.2012 16:00 22,8 C 45 % 1007,6 hPa 0,0 l/m O-NO 0,00 h 278 W/m 17,4 km/h (3 Bft)
30.04.2012 17:00 22,6 C 46 % 1007,2 hPa 0,0 l/m O-NO 0,00 h 167 W/m 16,2 km/h (3 Bft)
30.04.2012 18:00 22,0 C 48 % 1006,8 hPa 0,0 l/m O-NO 0,00 h 79 W/m 12,6 km/h (3 Bft)
30.04.2012 19:00 20,6 C 55 % 1006,9 hPa 0,0 l/m O-NO 0,00 h 17 W/m 4,0 km/h (1 Bft)
30.04.2012 20:00 19,0 C 58 % 1007,8 hPa 0,0 l/m S-SW 0,00 h 0 W/m 10,7 km/h (2 Bft)
30.04.2012 21:00 16,7 C 68 % 1007,6 hPa 0,4 l/m O-NO 0,00 h 0 W/m 3,6 km/h (1 Bft)
30.04.2012 22:00 14,0 C 84 % 1007,5 hPa 0,0 l/m N 0,00 h 0 W/m 1,6 km/h (1 Bft)
30.04.2012 23:00 13,2 C 83 % 1007,7 hPa 0,0 l/m N 0,00 h 0 W/m 1,7 km/h (1 Bft)
01.05.2012 00:00 13,0 C 79 % 1008,1 hPa 0,0 l/m N 0,00 h 0 W/m 1,7 km/h (1 Bft)
01.05.2012 01:00 12,9 C 74 % 1009,1 hPa 0,0 l/m SW 0,00 h 0 W/m 11,3 km/h (2 Bft)
01.05.2012 02:00 13,2 C 76 % 1009,9 hPa 0,0 l/m W-SW 0,00 h 0 W/m 17,7 km/h (3 Bft)
01.05.2012 03:00 11,6 C 79 % 1011,2 hPa 0,0 l/m SW 0,00 h 0 W/m 14,1 km/h (3 Bft)
01.05.2012 04:00 9,8 C 84 % 1012,4 hPa 0,0 l/m SW 0,00 h 0 W/m 7,1 km/h (2 Bft)
01.05.2012 05:00 8,7 C 86 % 1013,1 hPa 0,0 l/m S-SW 0,00 h 0 W/m 7,4 km/h (2 Bft)
01.05.2012 06:00 8,4 C 86 % 1013,8 hPa 0,0 l/m SW 0,25 h 34 W/m 9,4 km/h (2 Bft)
01.05.2012 07:00 10,0 C 80 % 1014,1 hPa 0,0 l/m SW 0,75 h 155 W/m 11,2 km/h (2 Bft)
01.05.2012 08:00 11,4 C 74 % 1014,7 hPa 0,0 l/m SW 0,42 h 187 W/m 14,2 km/h (3 Bft)
01.05.2012 09:00 12,2 C 72 % 1014,9 hPa 0,0 l/m SW 0,25 h 232 W/m 7,2 km/h (2 Bft)
01.05.2012 10:00 14,3 C 62 % 1014,9 hPa 0,0 l/m S-SW 0,83 h 598 W/m 9,8 km/h (2 Bft)
01.05.2012 11:00 15,8 C 57 % 1015,0 hPa 0,0 l/m N 0,83 h 674 W/m 9,9 km/h (2 Bft)
01.05.2012 12:00 16,0 C 56 % 1014,8 hPa 0,0 l/m N-NO 0,50 h 484 W/m 8,6 km/h (2 Bft)
01.05.2012 13:00 17,9 C 52 % 1014,5 hPa 0,0 l/m O 0,92 h 885 W/m 12,4 km/h (3 Bft)
01.05.2012 14:00 19,0 C 49 % 1014,1 hPa 0,0 l/m O-SO 0,67 h 647 W/m 11,0 km/h (2 Bft)
01.05.2012 15:00 19,5 C 48 % 1013,7 hPa 0,0 l/m O-SO 0,67 h 561 W/m 14,9 km/h (3 Bft)
01.05.2012 16:00 18,9 C 50 % 1013,4 hPa 0,0 l/m O-SO 0,17 h 260 W/m 11,4 km/h (2 Bft)
01.05.2012 17:00 18,6 C 52 % 1013,1 hPa 0,0 l/m O-SO 0,00 h 114 W/m 8,7 km/h (2 Bft)
01.05.2012 18:00 18,3 C 53 % 1013,1 hPa 0,0 l/m O 0,25 h 135 W/m 4,3 km/h (1 Bft)
01.05.2012 19:00 18,3 C 54 % 1012,9 hPa 0,0 l/m O 0,58 h 103 W/m 2,9 km/h (1 Bft)
01.05.2012 20:00 16,3 C 65 % 1012,9 hPa 0,0 l/m N 0,00 h 14 W/m 1,5 km/h (1 Bft)
01.05.2012 21:00 15,8 C 68 % 1012,7 hPa 0,0 l/m N-NO 0,00 h 0 W/m 6,9 km/h (2 Bft)
01.05.2012 22:00 15,5 C 67 % 1012,6 hPa 0,0 l/m N-NO 0,00 h 0 W/m 8,8 km/h (2 Bft)
01.05.2012 23:00 14,9 C 68 % 1012,1 hPa 0,0 l/m N 0,00 h 0 W/m 12,3 km/h (3 Bft)
02.05.2012 00:00 14,3 C 70 % 1011,7 hPa 0,0 l/m N 0,00 h 0 W/m 9,5 km/h (2 Bft)
02.05.2012 01:00 14,3 C 73 % 1011,3 hPa 0,0 l/m N 0,00 h 0 W/m 5,9 km/h (2 Bft)
02.05.2012 02:00 14,3 C 74 % 1010,6 hPa 0,0 l/m N 0,00 h 0 W/m 4,1 km/h (1 Bft)
02.05.2012 03:00 13,2 C 79 % 1009,9 hPa 0,0 l/m N 0,00 h 0 W/m 3,1 km/h (1 Bft)
02.05.2012 04:00 12,4 C 83 % 1009,3 hPa 0,0 l/m N 0,00 h 0 W/m 1,7 km/h (1 Bft)
02.05.2012 05:00 11,0 C 89 % 1009,3 hPa 0,0 l/m N 0,00 h 0 W/m 1,7 km/h (1 Bft)
02.05.2012 06:00 9,9 C 92 % 1009,3 hPa 0,0 l/m N 0,00 h 11 W/m 3,9 km/h (1 Bft)
02.05.2012 07:00 10,6 C 90 % 1009,7 hPa 0,0 l/m SW 0,00 h 101 W/m 5,5 km/h (1 Bft)
02.05.2012 08:00 12,3 C 87 % 1009,9 hPa 0,0 l/m S-SW 0,75 h 279 W/m 13,0 km/h (3 Bft)
02.05.2012 09:00 14,8 C 79 % 1010,5 hPa 0,0 l/m SW 0,67 h 358 W/m 16,8 km/h (3 Bft)
02.05.2012 10:00 16,0 C 71 % 1011,0 hPa 0,0 l/m W 1,00 h 665 W/m 19,8 km/h (4 Bft)
02.05.2012 11:00 16,9 C 64 % 1011,1 hPa 0,0 l/m W-SW 1,00 h 786 W/m 22,3 km/h (4 Bft)
02.05.2012 12:00 18,0 C 60 % 1011,0 hPa 0,0 l/m W 1,00 h 893 W/m 19,6 km/h (3 Bft)
02.05.2012 13:00 18,8 C 56 % 1011,0 hPa 0,0 l/m W-SW 1,00 h 935 W/m 21,2 km/h (4 Bft)
02.05.2012 14:00 19,9 C 52 % 1010,8 hPa 0,0 l/m SW 1,00 h 852 W/m 22,7 km/h (4 Bft)
02.05.2012 15:00 20,4 C 48 % 1010,9 hPa 0,0 l/m W-SW 1,00 h 796 W/m 22,8 km/h (4 Bft)
02.05.2012 16:00 20,1 C 50 % 1010,8 hPa 0,0 l/m W 1,00 h 593 W/m 21,2 km/h (4 Bft)
02.05.2012 17:00 19,4 C 49 % 1011,0 hPa 0,0 l/m W 1,00 h 498 W/m 21,0 km/h (4 Bft)
02.05.2012 18:00 18,2 C 52 % 1010,8 hPa 0,0 l/m W 0,92 h 290 W/m 21,6 km/h (4 Bft)
02.05.2012 19:00 16,1 C 59 % 1011,2 hPa 0,0 l/m W-SW 0,00 h 53 W/m 18,5 km/h (3 Bft)
02.05.2012 20:00 14,8 C 64 % 1011,8 hPa 0,0 l/m W 0,08 h 15 W/m 18,9 km/h (3 Bft)
02.05.2012 21:00 13,9 C 61 % 1012,2 hPa 0,0 l/m W 0,00 h 0 W/m 20,4 km/h (4 Bft)
02.05.2012 22:00 13,5 C 62 % 1012,3 hPa 0,0 l/m W 0,00 h 0 W/m 17,0 km/h (3 Bft)
02.05.2012 23:00 12,9 C 66 % 1012,5 hPa 0,0 l/m SW 0,00 h 0 W/m 8,0 km/h (2 Bft)
03.05.2012 00:00 12,0 C 70 % 1012,6 hPa 0,0 l/m W 0,00 h 0 W/m 6,5 km/h (2 Bft)
03.05.2012 01:00 11,2 C 74 % 1012,9 hPa 0,0 l/m N 0,00 h 0 W/m 1,3 km/h (1 Bft)
03.05.2012 02:00 11,1 C 77 % 1013,2 hPa 0,0 l/m SW 0,00 h 0 W/m 2,0 km/h (1 Bft)
03.05.2012 03:00 10,6 C 81 % 1012,7 hPa 0,0 l/m N 0,00 h 0 W/m 0,5 km/h (0 Bft)
03.05.2012 04:00 10,4 C 83 % 1012,5 hPa 0,0 l/m N 0,00 h 0 W/m 1,1 km/h (0 Bft)
03.05.2012 05:00 10,1 C 84 % 1012,4 hPa 0,0 l/m N 0,00 h 0 W/m 0,4 km/h (0 Bft)
03.05.2012 06:00 9,6 C 85 % 1012,4 hPa 0,0 l/m N 0,00 h 11 W/m 1,2 km/h (1 Bft)
03.05.2012 07:00 9,5 C 87 % 1012,3 hPa 0,0 l/m N 0,00 h 53 W/m 0,1 km/h (0 Bft)
03.05.2012 08:00 10,7 C 85 % 1012,3 hPa 0,0 l/m S 0,08 h 140 W/m 2,0 km/h (1 Bft)
03.05.2012 09:00 12,7 C 78 % 1012,1 hPa 0,0 l/m S 0,00 h 179 W/m 4,4 km/h (1 Bft)
03.05.2012 10:00 14,5 C 70 % 1011,9 hPa 0,0 l/m SO 0,42 h 359 W/m 8,8 km/h (2 Bft)
03.05.2012 11:00 16,4 C 60 % 1011,3 hPa 0,0 l/m SW 0,58 h 615 W/m 15,4 km/h (3 Bft)
03.05.2012 12:00 18,0 C 54 % 1010,6 hPa 0,0 l/m S-SW 1,00 h 891 W/m 17,2 km/h (3 Bft)
03.05.2012 13:00 19,2 C 48 % 1010,0 hPa 0,0 l/m SW 0,83 h 840 W/m 15,0 km/h (3 Bft)
03.05.2012 14:00 19,6 C 44 % 1009,5 hPa 0,0 l/m S-SW 0,75 h 775 W/m 13,3 km/h (3 Bft)
03.05.2012 15:00 19,8 C 43 % 1009,0 hPa 0,0 l/m O 0,75 h 673 W/m 11,4 km/h (2 Bft)
03.05.2012 16:00 20,0 C 40 % 1008,2 hPa 0,0 l/m W-SW 0,75 h 601 W/m 13,6 km/h (3 Bft)
03.05.2012 17:00 19,7 C 41 % 1007,8 hPa 0,0 l/m W-SW 0,92 h 511 W/m 10,7 km/h (2 Bft)
03.05.2012 18:00 19,1 C 42 % 1007,5 hPa 0,0 l/m W 0,67 h 241 W/m 10,5 km/h (2 Bft)
03.05.2012 19:00 17,2 C 52 % 1007,5 hPa 0,0 l/m NW 0,67 h 126 W/m 12,5 km/h (3 Bft)
03.05.2012 20:00 14,8 C 63 % 1007,6 hPa 0,0 l/m N 0,00 h 11 W/m 1,6 km/h (1 Bft)
03.05.2012 21:00 14,0 C 67 % 1008,1 hPa 0,0 l/m W-NW 0,00 h 0 W/m 5,1 km/h (1 Bft)
03.05.2012 22:00 12,4 C 73 % 1008,2 hPa 0,0 l/m N 0,00 h 0 W/m 0,4 km/h (0 Bft)
03.05.2012 23:00 10,5 C 79 % 1008,2 hPa 0,0 l/m N 0,00 h 0 W/m 0,1 km/h (0 Bft)
04.05.2012 00:00 9,5 C 84 % 1008,0 hPa 0,0 l/m N 0,00 h 0 W/m 0,0 km/h (0 Bft)
04.05.2012 01:00 8,6 C 87 % 1008,0 hPa 0,0 l/m N 0,00 h 0 W/m 0,1 km/h (0 Bft)
04.05.2012 02:00 7,9 C 90 % 1007,5 hPa 0,0 l/m N 0,00 h 0 W/m 0,0 km/h (0 Bft)
04.05.2012 03:00 7,1 C 91 % 1007,2 hPa 0,0 l/m N 0,00 h 0 W/m 0,0 km/h (0 Bft)
04.05.2012 04:00 6,3 C 93 % 1007,2 hPa 0,0 l/m N 0,00 h 0 W/m 0,4 km/h (0 Bft)
04.05.2012 05:00 5,7 C 94 % 1007,0 hPa 0,0 l/m N 0,00 h 0 W/m 0,0 km/h (0 Bft)
04.05.2012 06:00 5,4 C 95 % 1006,9 hPa 0,0 l/m N 0,00 h 24 W/m 0,1 km/h (0 Bft)
04.05.2012 07:00 7,0 C 93 % 1007,2 hPa 0,0 l/m N 0,25 h 122 W/m 0,8 km/h (0 Bft)
04.05.2012 08:00 9,8 C 86 % 1007,1 hPa 0,0 l/m W-SW 0,83 h 304 W/m 3,5 km/h (1 Bft)
04.05.2012 09:00 14,3 C 71 % 1006,7 hPa 0,0 l/m S 1,00 h 502 W/m 8,9 km/h (2 Bft)
04.05.2012 10:00 17,0 C 58 % 1006,3 hPa 0,0 l/m S-SO 0,92 h 639 W/m 10,2 km/h (2 Bft)
04.05.2012 11:00 18,2 C 51 % 1005,6 hPa 0,0 l/m S 0,92 h 770 W/m 14,0 km/h (3 Bft)
04.05.2012 12:00 19,1 C 47 % 1005,1 hPa 0,0 l/m S-SW 0,75 h 773 W/m 15,0 km/h (3 Bft)
04.05.2012 13:00 20,2 C 42 % 1004,5 hPa 0,0 l/m S-SW 0,92 h 843 W/m 16,2 km/h (3 Bft)
04.05.2012 14:00 21,2 C 37 % 1003,9 hPa 0,0 l/m SW 1,00 h 869 W/m 15,4 km/h (3 Bft)
04.05.2012 15:00 21,8 C 33 % 1003,3 hPa 0,0 l/m SW 1,00 h 798 W/m 16,2 km/h (3 Bft)
04.05.2012 16:00 21,0 C 36 % 1002,9 hPa 0,0 l/m NW 0,92 h 638 W/m 18,5 km/h (3 Bft)
04.05.2012 17:00 20,0 C 41 % 1002,6 hPa 0,0 l/m N-NO 1,00 h 526 W/m 15,4 km/h (3 Bft)
04.05.2012 18:00 18,9 C 44 % 1002,3 hPa 0,0 l/m NO 0,17 h 113 W/m 9,1 km/h (2 Bft)
04.05.2012 19:00 18,0 C 47 % 1002,0 hPa 0,0 l/m NO 0,25 h 85 W/m 5,5 km/h (1 Bft)
04.05.2012 20:00 15,4 C 61 % 1002,0 hPa 0,0 l/m N 0,00 h 14 W/m 0,9 km/h (0 Bft)
04.05.2012 21:00 12,9 C 69 % 1002,3 hPa 0,0 l/m N 0,00 h 0 W/m 0,3 km/h (0 Bft)
04.05.2012 22:00 11,7 C 74 % 1002,3 hPa 0,0 l/m N 0,00 h 0 W/m 0,1 km/h (0 Bft)
04.05.2012 23:00 10,8 C 78 % 1002,1 hPa 0,0 l/m N 0,00 h 0 W/m 0,4 km/h (0 Bft)
05.05.2012 00:00 10,8 C 77 % 1002,2 hPa 0,0 l/m NO 0,00 h 0 W/m 0,8 km/h (0 Bft)
05.05.2012 01:00 12,7 C 71 % 1002,0 hPa 0,0 l/m N-NO 0,00 h 0 W/m 4,8 km/h (1 Bft)
05.05.2012 02:00 13,1 C 70 % 1002,4 hPa 0,0 l/m W 0,00 h 0 W/m 19,0 km/h (3 Bft)
05.05.2012 03:00 12,1 C 76 % 1002,7 hPa 0,0 l/m W-NW 0,00 h 0 W/m 6,2 km/h (2 Bft)
05.05.2012 04:00 11,2 C 83 % 1002,8 hPa 0,0 l/m N 0,00 h 0 W/m 1,3 km/h (1 Bft)
05.05.2012 05:00 11,1 C 84 % 1002,6 hPa 0,0 l/m SW 0,00 h 0 W/m 8,8 km/h (2 Bft)
05.05.2012 06:00 10,5 C 90 % 1002,6 hPa 0,0 l/m SW 0,00 h 13 W/m 6,4 km/h (2 Bft)
05.05.2012 07:00 10,7 C 92 % 1003,0 hPa 0,2 l/m SW 0,00 h 37 W/m 15,6 km/h (3 Bft)
05.05.2012 08:00 10,3 C 93 % 1003,2 hPa 1,2 l/m W-SW 0,00 h 33 W/m 24,9 km/h (4 Bft)
05.05.2012 09:00 9,8 C 94 % 1003,5 hPa 4,0 l/m SW 0,00 h 45 W/m 16,9 km/h (3 Bft)
05.05.2012 10:00 9,6 C 96 % 1004,4 hPa 2,2 l/m SW 0,00 h 83 W/m 20,1 km/h (4 Bft)
05.05.2012 11:00 9,7 C 96 % 1004,9 hPa 1,2 l/m SW 0,00 h 105 W/m 19,6 km/h (3 Bft)
05.05.2012 12:00 10,2 C 96 % 1004,9 hPa 0,8 l/m SW 0,00 h 151 W/m 19,0 km/h (3 Bft)
05.05.2012 13:00 12,0 C 93 % 1004,9 hPa 0,0 l/m SW 0,42 h 476 W/m 21,8 km/h (4 Bft)
05.05.2012 14:00 13,4 C 84 % 1004,6 hPa 0,0 l/m W-SW 0,42 h 460 W/m 24,5 km/h (4 Bft)
05.05.2012 15:00 12,9 C 84 % 1004,7 hPa 0,2 l/m W-SW 0,50 h 537 W/m 24,1 km/h (4 Bft)
05.05.2012 16:00 13,4 C 78 % 1004,6 hPa 0,0 l/m SW 0,17 h 325 W/m 21,2 km/h (4 Bft)
05.05.2012 17:00 14,3 C 72 % 1004,7 hPa 0,0 l/m W 0,83 h 492 W/m 18,8 km/h (3 Bft)
05.05.2012 18:00 15,0 C 69 % 1004,5 hPa 0,0 l/m W 0,75 h 326 W/m 13,8 km/h (3 Bft)
05.05.2012 19:00 14,1 C 68 % 1004,6 hPa 0,0 l/m W-SW 0,67 h 133 W/m 10,2 km/h (2 Bft)
05.05.2012 20:00 11,4 C 82 % 1005,0 hPa 0,0 l/m N 0,00 h 12 W/m 1,3 km/h (1 Bft)
05.05.2012 21:00 9,7 C 89 % 1005,6 hPa 0,0 l/m N 0,00 h 0 W/m 0,3 km/h (0 Bft)
05.05.2012 22:00 9,5 C 91 % 1005,7 hPa 0,0 l/m N 0,00 h 0 W/m 0,3 km/h (0 Bft)
05.05.2012 23:00 10,0 C 89 % 1006,2 hPa 0,8 l/m W-SW 0,00 h 0 W/m 17,8 km/h (3 Bft)
06.05.2012 00:00 9,3 C 93 % 1005,8 hPa 0,4 l/m SW 0,00 h 0 W/m 10,6 km/h (2 Bft)
06.05.2012 01:00 8,8 C 95 % 1005,9 hPa 0,0 l/m SW 0,00 h 0 W/m 5,6 km/h (1 Bft)
06.05.2012 02:00 8,4 C 95 % 1005,8 hPa 0,0 l/m SW 0,00 h 0 W/m 3,6 km/h (1 Bft)
06.05.2012 03:00 8,8 C 95 % 1006,0 hPa 0,0 l/m S-SW 0,00 h 0 W/m 5,1 km/h (1 Bft)
06.05.2012 04:00 8,9 C 94 % 1005,9 hPa 0,0 l/m S-SW 0,00 h 0 W/m 2,5 km/h (1 Bft)
06.05.2012 05:00 8,6 C 96 % 1006,0 hPa 0,2 l/m SW 0,00 h 0 W/m 9,0 km/h (2 Bft)
06.05.2012 06:00 8,7 C 97 % 1006,4 hPa 0,2 l/m SW 0,00 h 13 W/m 13,0 km/h (3 Bft)
06.05.2012 07:00 8,9 C 97 % 1007,2 hPa 0,4 l/m SW 0,00 h 20 W/m 14,6 km/h (3 Bft)
06.05.2012 08:00 9,2 C 97 % 1007,6 hPa 0,0 l/m W-SW 0,00 h 97 W/m 13,3 km/h (3 Bft)
06.05.2012 09:00 10,3 C 93 % 1007,9 hPa 0,0 l/m W-SW 0,08 h 175 W/m 15,0 km/h (3 Bft)
06.05.2012 10:00 11,1 C 87 % 1008,3 hPa 0,0 l/m W-SW 0,00 h 235 W/m 16,4 km/h (3 Bft)
06.05.2012 11:00 11,8 C 82 % 1008,8 hPa 0,0 l/m W-SW 0,08 h 282 W/m 15,0 km/h (3 Bft)
06.05.2012 12:00 13,8 C 75 % 1008,8 hPa 0,0 l/m S-SW 0,75 h 684 W/m 18,4 km/h (3 Bft)
06.05.2012 13:00 14,4 C 70 % 1008,5 hPa 0,0 l/m SW 0,42 h 434 W/m 19,4 km/h (3 Bft)
06.05.2012 14:00 14,1 C 72 % 1008,5 hPa 0,0 l/m S-SW 0,25 h 357 W/m 22,4 km/h (4 Bft)
06.05.2012 15:00 12,4 C 78 % 1009,1 hPa 0,8 l/m S-SW 0,00 h 76 W/m 26,6 km/h (4 Bft)
06.05.2012 16:00 11,0 C 90 % 1009,0 hPa 0,2 l/m S-SW 0,17 h 285 W/m 18,9 km/h (3 Bft)
06.05.2012 17:00 11,7 C 84 % 1009,4 hPa 0,4 l/m SW 0,42 h 263 W/m 23,6 km/h (4 Bft)
06.05.2012 18:00 11,9 C 84 % 1009,6 hPa 0,0 l/m SW 0,92 h 382 W/m 19,2 km/h (3 Bft)
06.05.2012 19:00 11,9 C 81 % 1010,0 hPa 0,0 l/m SW 0,50 h 119 W/m 11,5 km/h (2 Bft)
06.05.2012 20:00 10,6 C 86 % 1010,6 hPa 0,0 l/m W-SW 0,00 h 8 W/m 6,7 km/h (2 Bft)
06.05.2012 21:00 10,0 C 88 % 1011,4 hPa 0,0 l/m W-SW 0,00 h 0 W/m 9,9 km/h (2 Bft)
06.05.2012 22:00 9,3 C 89 % 1012,1 hPa 0,0 l/m W-SW 0,00 h 0 W/m 11,4 km/h (2 Bft)
06.05.2012 23:00 8,9 C 91 % 1012,6 hPa 0,0 l/m W-SW 0,00 h 0 W/m 10,1 km/h (2 Bft)
Min-Datum _ 04.05.12 04.05.12 05.05.12 - - - - 30.04.12
_ Min-Zeit 06:05 16:00 01:45 - - - - 00:20
Minimum _ 5,3 C 29 % 1001,7 hPa - - - - 0,0 km/h (0 Bft)
Max-Datum _ 30.04.12 05.05.12 01.05.12 05.05.12 - 30.04.12 30.04.12 06.05.12
_ Max-Zeit 14:30 11:40 10:45 09:20 - 07:15 14:20 15:45
Maximum _ 23,7 C 97 % 1015,1 hPa 4,0 l/m - 0,08 h 1023 W/m 35,4 km/h
SW (5 Bft)
Durchschnitt _ 13,7 C 72 % 1008,8 hPa #13,6 l/m SW #49:30 h 361 W/m 10,5 km/h (2 Bft)